Time;durP1;ratioP1;P1;durP2;ratioP2;P2;SDS_P1;SDS_P2;PMS_P1;PMS_P2;Temp;Humidity;BMP_temperature;BMP_pressure;BME280_temperature;BME280_humidity;BME280_pressure;Samples;Min_cycle;Max_cycle;Signal;HPM_P1;HPM_P2
2023/03/01 00:02:20;;;;;;;31.25;21.98;;;18.40;55.00;;;;;;5087018;28;20531;-73
2023/03/01 00:04:46;;;;;;;34.33;23.00;;;18.30;54.90;;;;;;5071524;28;20040;-75
2023/03/01 00:07:12;;;;;;;30.13;21.02;;;18.30;54.90;;;;;;5064690;28;20594;-76
2023/03/01 00:09:39;;;;;;;32.92;21.95;;;18.20;54.80;;;;;;5068171;28;20070;-75
2023/03/01 00:12:05;;;;;;;29.23;20.80;;;18.20;55.50;;;;;;5070127;28;20135;-76
2023/03/01 00:14:31;;;;;;;30.13;20.08;;;18.20;55.50;;;;;;5073229;28;20479;-75
2023/03/01 00:16:56;;;;;;;29.48;21.27;;;18.10;55.30;;;;;;5082791;28;20281;-76
2023/03/01 00:19:22;;;;;;;28.05;19.95;;;18.20;55.30;;;;;;5048010;28;20060;-76
2023/03/01 00:21:48;;;;;;;25.95;18.70;;;18.10;55.40;;;;;;5087618;28;20055;-76
2023/03/01 00:24:14;;;;;;;24.20;17.48;;;18.10;55.60;;;;;;5090771;28;20048;-76
2023/03/01 00:26:39;;;;;;;25.67;18.48;;;18.10;55.50;;;;;;5092280;28;20127;-75
2023/03/01 00:29:05;;;;;;;23.73;18.83;;;18.00;55.70;;;;;;5074411;28;20043;-76
2023/03/01 00:31:31;;;;;;;26.23;19.35;;;18.00;55.70;;;;;;5087834;28;20050;-75
2023/03/01 00:33:58;;;;;;;24.73;17.70;;;18.00;55.80;;;;;;5070354;28;20855;-75
2023/03/01 00:36:25;;;;;;;22.10;17.52;;;18.00;55.80;;;;;;5090548;28;20071;-75
2023/03/01 00:38:51;;;;;;;27.80;19.58;;;17.90;55.90;;;;;;5087074;28;20044;-75
2023/03/01 00:41:17;;;;;;;25.50;17.60;;;17.90;55.60;;;;;;5090079;28;20056;-76
2023/03/01 00:43:43;;;;;;;23.38;16.40;;;17.90;56.10;;;;;;5077967;28;20044;-75
2023/03/01 00:46:16;;;;;;;24.65;17.02;;;17.80;56.00;;;;;;5068915;28;20048;-75
2023/03/01 00:48:42;;;;;;;23.40;16.83;;;17.80;56.10;;;;;;5074095;28;20032;-75
2023/03/01 00:51:18;;;;;;;23.30;17.33;;;17.70;56.30;;;;;;5096833;28;20052;-75
2023/03/01 00:53:44;;;;;;;20.80;15.93;;;17.70;56.20;;;;;;5043437;28;20020;-75
2023/03/01 00:56:10;;;;;;;22.73;16.10;;;17.70;56.20;;;;;;5079469;28;20027;-75
2023/03/01 00:58:37;;;;;;;23.23;16.65;;;17.70;56.20;;;;;;5077232;28;20389;-75
2023/03/01 01:01:23;;;;;;;20.65;14.77;;;17.70;56.20;;;;;;5094571;28;20097;-75
2023/03/01 01:03:52;;;;;;;22.88;16.58;;;17.70;56.30;;;;;;5098932;28;20269;-75
2023/03/01 01:06:20;;;;;;;21.60;15.43;;;17.70;56.20;;;;;;5071913;28;20493;-75
2023/03/01 01:08:46;;;;;;;19.75;14.50;;;17.70;56.40;;;;;;5056072;28;20024;-75
2023/03/01 01:11:12;;;;;;;19.25;14.95;;;17.60;56.40;;;;;;5067580;28;20450;-75
2023/03/01 01:13:38;;;;;;;20.48;15.50;;;17.60;56.50;;;;;;5071557;28;20063;-75
2023/03/01 01:16:04;;;;;;;19.88;15.05;;;17.60;56.20;;;;;;5057538;28;20485;-75
2023/03/01 01:18:30;;;;;;;18.27;13.43;;;17.60;56.10;;;;;;5094376;28;20016;-75
2023/03/01 01:20:55;;;;;;;19.08;13.98;;;17.60;55.70;;;;;;5093277;28;20035;-75
2023/03/01 01:23:21;;;;;;;18.33;13.85;;;17.60;56.60;;;;;;5078658;28;20054;-75
2023/03/01 01:25:47;;;;;;;19.83;14.95;;;17.60;56.50;;;;;;5091925;28;20064;-75
2023/03/01 01:28:12;;;;;;;19.17;14.80;;;17.60;56.70;;;;;;5094133;28;20459;-75
2023/03/01 01:30:38;;;;;;;18.85;14.25;;;17.60;56.80;;;;;;5092016;28;20500;-75
2023/03/01 01:33:03;;;;;;;16.65;13.13;;;17.50;56.80;;;;;;5086833;28;20047;-75
2023/03/01 01:35:29;;;;;;;19.10;13.40;;;17.50;56.90;;;;;;5094525;28;20475;-75
2023/03/01 01:37:55;;;;;;;19.50;13.68;;;17.50;56.90;;;;;;5092198;28;20040;-75
2023/03/01 01:40:20;;;;;;;17.85;13.52;;;17.50;57.00;;;;;;5087923;28;20160;-75
2023/03/01 01:42:46;;;;;;;17.77;13.43;;;17.50;57.00;;;;;;5087358;28;20586;-75
2023/03/01 01:45:35;;;;;;;16.48;12.88;;;17.40;57.10;;;;;;5092980;28;20748;-76
2023/03/01 01:48:10;;;;;;;15.55;12.15;;;17.40;57.20;;;;;;5094969;28;20035;-74
2023/03/01 01:50:38;;;;;;;16.67;12.85;;;17.30;57.20;;;;;;5092800;28;20521;-75
2023/03/01 01:53:14;;;;;;;14.45;11.80;;;17.40;57.20;;;;;;5068627;28;20032;-75
2023/03/01 01:55:44;;;;;;;18.60;12.50;;;17.30;57.20;;;;;;5076768;28;20044;-75
2023/03/01 01:58:10;;;;;;;16.77;13.25;;;17.30;57.20;;;;;;5091245;28;20278;-75
2023/03/01 02:00:36;;;;;;;16.40;12.63;;;17.30;57.20;;;;;;5090313;28;20075;-74
2023/03/01 02:03:07;;;;;;;17.05;13.68;;;17.30;57.20;;;;;;5063156;28;20070;-75
2023/03/01 02:06:11;;;;;;;17.02;12.85;;;17.20;57.30;;;;;;5072411;28;20036;-75
2023/03/01 02:08:38;;;;;;;17.08;12.63;;;17.30;57.30;;;;;;5086076;28;20051;-75
2023/03/01 02:11:04;;;;;;;13.85;11.60;;;17.20;57.30;;;;;;5099090;28;20048;-75
2023/03/01 02:13:30;;;;;;;14.80;11.85;;;17.20;57.30;;;;;;5089023;28;20536;-73
2023/03/01 02:15:56;;;;;;;12.93;10.55;;;17.20;57.30;;;;;;5073755;28;20071;-73
2023/03/01 02:18:22;;;;;;;14.25;11.25;;;17.20;57.40;;;;;;5095381;28;20108;-73
2023/03/01 02:21:05;;;;;;;14.10;12.10;;;17.20;57.50;;;;;;5077612;28;20408;-73
2023/03/01 02:23:31;;;;;;;15.30;11.55;;;17.20;57.30;;;;;;5060421;28;20044;-73
2023/03/01 02:26:07;;;;;;;14.52;10.95;;;17.20;57.40;;;;;;5079168;28;20047;-73
2023/03/01 02:28:36;;;;;;;13.75;10.85;;;17.10;57.40;;;;;;5076270;28;20413;-73
2023/03/01 02:33:48;;;;;;;13.93;11.38;;;17.10;57.50;;;;;;5091245;28;20566;-73
2023/03/01 02:36:28;;;;;;;12.30;10.23;;;17.10;57.50;;;;;;5079217;28;20062;-73
2023/03/01 02:38:55;;;;;;;12.43;10.00;;;17.10;57.60;;;;;;5079473;28;20412;-72
2023/03/01 02:41:21;;;;;;;12.45;9.88;;;17.00;57.60;;;;;;5073065;28;20035;-72
2023/03/01 02:43:47;;;;;;;10.73;9.55;;;17.00;57.60;;;;;;5068728;28;20052;-73
2023/03/01 02:46:20;;;;;;;13.52;10.43;;;17.00;57.70;;;;;;5071124;28;20505;-73
2023/03/01 02:52:18;;;;;;;11.75;9.70;;;17.00;57.70;;;;;;5096043;28;20523;-72
2023/03/01 02:54:46;;;;;;;11.95;9.85;;;16.90;57.70;;;;;;5078868;28;20043;-73
2023/03/01 02:57:12;;;;;;;10.57;9.52;;;16.90;57.50;;;;;;5097077;28;20020;-72
2023/03/01 02:59:39;;;;;;;11.20;10.02;;;16.90;57.70;;;;;;5043146;28;20069;-72
2023/03/01 03:02:06;;;;;;;11.05;9.85;;;16.90;57.60;;;;;;5078455;28;20026;-72
2023/03/01 03:04:31;;;;;;;9.68;8.75;;;16.90;57.60;;;;;;5089875;28;20031;-72
2023/03/01 03:06:57;;;;;;;11.13;9.75;;;16.90;57.70;;;;;;5092618;28;20410;-72
2023/03/01 03:09:22;;;;;;;11.57;10.02;;;16.90;57.70;;;;;;5092826;28;20150;-72
2023/03/01 03:11:48;;;;;;;12.30;10.52;;;16.90;57.70;;;;;;5094340;28;20052;-72
2023/03/01 03:14:14;;;;;;;10.38;9.25;;;16.90;57.50;;;;;;5092862;28;20049;-72
2023/03/01 03:16:41;;;;;;;10.93;8.77;;;16.80;57.70;;;;;;5096188;28;20038;-72
2023/03/01 03:19:07;;;;;;;10.60;9.10;;;16.80;57.50;;;;;;5094275;28;20020;-72
2023/03/01 03:21:33;;;;;;;9.38;7.78;;;16.80;57.50;;;;;;5093504;28;20115;-72
2023/03/01 03:23:58;;;;;;;9.88;8.63;;;16.80;57.60;;;;;;5089382;28;20028;-72
2023/03/01 03:26:24;;;;;;;9.70;8.40;;;16.80;57.60;;;;;;5080347;28;20118;-72
2023/03/01 03:28:50;;;;;;;9.43;8.52;;;16.80;57.50;;;;;;5091793;28;20114;-72
2023/03/01 03:31:15;;;;;;;8.45;7.60;;;16.80;57.40;;;;;;5080250;28;20036;-72
2023/03/01 03:33:41;;;;;;;9.52;8.30;;;16.80;57.30;;;;;;5092246;28;20024;-72
2023/03/01 03:36:12;;;;;;;8.65;7.75;;;16.80;57.50;;;;;;5096966;28;20025;-72
2023/03/01 03:38:39;;;;;;;8.90;8.05;;;16.80;57.40;;;;;;5093817;28;20055;-72
2023/03/01 03:41:07;;;;;;;9.25;7.72;;;16.80;57.30;;;;;;5096975;28;20054;-72
2023/03/01 03:43:33;;;;;;;8.55;7.65;;;16.80;57.30;;;;;;5077562;28;20488;-72
2023/03/01 03:46:23;;;;;;;9.15;8.20;;;16.70;57.40;;;;;;5094602;28;20382;-72
2023/03/01 03:48:49;;;;;;;8.60;7.80;;;16.70;57.30;;;;;;5096926;28;20116;-72
2023/03/01 03:51:16;;;;;;;7.97;7.28;;;16.70;57.30;;;;;;5093632;28;20032;-72
2023/03/01 03:53:42;;;;;;;7.97;7.18;;;16.70;57.30;;;;;;5062600;28;20094;-72
2023/03/01 03:56:07;;;;;;;8.30;7.50;;;16.70;57.20;;;;;;5091592;28;20493;-72
2023/03/01 03:58:33;;;;;;;8.27;7.22;;;16.70;57.10;;;;;;5090595;28;20017;-72
2023/03/01 04:01:00;;;;;;;7.75;7.05;;;16.70;57.10;;;;;;5094979;28;20032;-72
2023/03/01 04:03:26;;;;;;;7.55;6.75;;;16.70;57.10;;;;;;5073611;28;20044;-72
2023/03/01 04:05:52;;;;;;;7.43;6.82;;;16.70;57.20;;;;;;5069685;28;20035;-72
2023/03/01 04:08:20;;;;;;;7.28;6.57;;;16.60;56.90;;;;;;5099370;28;20020;-72
2023/03/01 04:10:47;;;;;;;8.35;7.55;;;16.70;57.10;;;;;;5089501;28;20048;-72
2023/03/01 04:13:14;;;;;;;7.63;6.90;;;16.70;57.20;;;;;;5089436;28;20150;-72
2023/03/01 04:15:40;;;;;;;7.65;6.85;;;16.60;56.80;;;;;;5092498;28;21022;-72
2023/03/01 04:18:06;;;;;;;7.47;6.80;;;16.60;57.10;;;;;;5101730;28;20047;-72
2023/03/01 04:20:34;;;;;;;7.13;6.53;;;16.60;57.20;;;;;;5094187;28;20048;-72
2023/03/01 04:23:12;;;;;;;7.50;6.80;;;16.60;57.30;;;;;;5083228;28;20047;-72
2023/03/01 04:25:58;;;;;;;8.23;7.43;;;16.60;57.20;;;;;;5089601;28;20050;-72
2023/03/01 04:28:35;;;;;;;6.78;6.18;;;16.60;57.00;;;;;;5098066;28;20694;-72
2023/03/01 04:31:17;;;;;;;6.80;6.10;;;16.60;57.10;;;;;;5096518;28;20101;-72
2023/03/01 04:33:46;;;;;;;6.25;5.75;;;16.60;57.20;;;;;;5096988;28;20067;-72
2023/03/01 04:36:12;;;;;;;7.57;6.80;;;16.60;57.20;;;;;;5098034;28;20590;-72
2023/03/01 04:38:38;;;;;;;6.35;5.75;;;16.60;56.80;;;;;;5094697;28;20067;-72
2023/03/01 04:41:05;;;;;;;6.78;6.18;;;16.60;56.90;;;;;;5092218;28;20041;-72
2023/03/01 04:43:31;;;;;;;6.90;6.15;;;16.60;56.90;;;;;;5088407;28;20664;-72
2023/03/01 04:49:18;;;;;;;6.43;5.82;;;16.60;56.70;;;;;;5103096;28;20038;-72
2023/03/01 04:51:44;;;;;;;6.75;6.15;;;16.60;56.90;;;;;;5100279;28;20032;-72
2023/03/01 04:54:10;;;;;;;5.80;5.30;;;16.50;56.90;;;;;;5099778;28;20020;-72
2023/03/01 04:56:35;;;;;;;6.50;5.93;;;16.60;56.70;;;;;;5096993;28;20027;-72
2023/03/01 04:59:05;;;;;;;6.85;6.00;;;16.50;56.80;;;;;;5096987;28;20462;-72
2023/03/01 05:01:31;;;;;;;6.25;5.70;;;16.60;57.20;;;;;;5092708;28;20024;-72
2023/03/01 05:04:02;;;;;;;6.40;5.80;;;16.60;56.60;;;;;;5089290;28;20054;-72
2023/03/01 05:06:28;;;;;;;5.65;5.15;;;16.60;56.80;;;;;;5095223;28;20015;-72
2023/03/01 05:08:53;;;;;;;5.38;4.97;;;16.50;56.90;;;;;;5096191;28;20072;-72
2023/03/01 05:11:19;;;;;;;5.50;5.00;;;16.50;56.50;;;;;;5098075;28;20570;-72
2023/03/01 05:13:45;;;;;;;6.20;5.60;;;16.50;56.60;;;;;;5096513;28;20028;-71
2023/03/01 05:16:13;;;;;;;5.88;5.35;;;16.50;56.30;;;;;;5100896;28;20519;-72
2023/03/01 05:18:39;;;;;;;5.53;5.05;;;16.50;56.30;;;;;;5093361;28;20138;-72
2023/03/01 05:21:10;;;;;;;5.72;5.22;;;16.50;56.40;;;;;;5095378;28;20525;-72
2023/03/01 05:23:36;;;;;;;5.88;5.38;;;16.50;56.30;;;;;;5091987;28;20048;-72
2023/03/01 05:26:03;;;;;;;5.53;5.13;;;16.50;56.50;;;;;;5098785;28;20039;-72
2023/03/01 05:28:29;;;;;;;5.05;4.72;;;16.50;56.30;;;;;;5093332;28;20123;-72
2023/03/01 05:30:55;;;;;;;5.28;4.88;;;16.50;56.60;;;;;;5097134;28;20563;-72
2023/03/01 05:33:21;;;;;;;5.68;5.28;;;16.50;56.20;;;;;;5092908;28;20067;-72
2023/03/01 05:35:48;;;;;;;5.40;4.90;;;16.50;56.40;;;;;;5091951;28;20167;-72
2023/03/01 05:38:14;;;;;;;5.43;5.03;;;16.50;56.50;;;;;;5087377;28;20500;-72
2023/03/01 05:40:41;;;;;;;5.78;5.38;;;16.40;56.30;;;;;;5087243;28;20047;-72
2023/03/01 05:43:07;;;;;;;5.45;5.03;;;16.50;56.20;;;;;;5099371;28;20042;-72
2023/03/01 05:45:32;;;;;;;5.50;5.10;;;16.40;56.60;;;;;;5093381;28;20464;-72
2023/03/01 05:47:58;;;;;;;5.80;5.40;;;16.50;56.20;;;;;;5095857;28;20039;-72
2023/03/01 05:50:28;;;;;;;4.72;4.40;;;16.50;56.10;;;;;;5080309;28;20535;-73
2023/03/01 05:52:59;;;;;;;4.80;4.50;;;16.40;56.20;;;;;;5098180;28;20048;-72
2023/03/01 05:55:24;;;;;;;5.35;5.05;;;16.40;56.30;;;;;;5087911;28;20028;-72
2023/03/01 05:57:50;;;;;;;4.50;4.20;;;16.50;56.30;;;;;;5080427;28;20044;-72
2023/03/01 06:00:17;;;;;;;4.90;4.50;;;16.40;56.30;;;;;;5087565;28;20513;-72
2023/03/01 06:02:43;;;;;;;4.50;4.20;;;16.40;56.50;;;;;;5095025;28;20059;-72
2023/03/01 06:05:09;;;;;;;5.70;5.20;;;16.40;56.20;;;;;;5096614;28;20044;-73
2023/03/01 06:07:35;;;;;;;4.90;4.60;;;16.40;56.30;;;;;;5075592;28;20531;-74
2023/03/01 06:10:01;;;;;;;4.57;4.28;;;16.40;56.20;;;;;;5091916;28;20066;-72
2023/03/01 06:12:31;;;;;;;4.82;4.30;;;16.30;56.30;;;;;;5093183;28;20113;-72
2023/03/01 06:14:56;;;;;;;4.32;4.03;;;16.40;56.00;;;;;;5063451;28;20051;-72
2023/03/01 06:17:22;;;;;;;4.68;4.28;;;16.40;56.20;;;;;;5095391;28;20043;-72
2023/03/01 06:19:47;;;;;;;4.18;3.75;;;16.30;55.80;;;;;;5091730;28;20570;-72
2023/03/01 06:22:13;;;;;;;4.40;4.10;;;16.40;56.50;;;;;;5091873;28;20474;-71
2023/03/01 06:24:39;;;;;;;4.07;3.78;;;16.30;56.40;;;;;;5092455;28;20563;-72
2023/03/01 06:27:04;;;;;;;4.47;4.18;;;16.30;56.80;;;;;;5089619;28;20039;-72
2023/03/01 06:29:30;;;;;;;4.90;4.40;;;16.30;56.60;;;;;;5096410;28;20496;-72
2023/03/01 06:31:56;;;;;;;4.82;4.43;;;16.30;57.10;;;;;;5085806;28;20054;-72
2023/03/01 06:34:21;;;;;;;4.32;4.00;;;16.20;57.20;;;;;;5089430;28;20093;-72
2023/03/01 06:36:47;;;;;;;4.63;4.32;;;16.20;57.20;;;;;;5089616;28;20044;-71
2023/03/01 06:39:13;;;;;;;5.22;4.13;;;16.20;57.30;;;;;;5089172;28;20036;-72
2023/03/01 06:41:38;;;;;;;3.92;3.63;;;16.20;57.50;;;;;;5092223;28;20040;-73
2023/03/01 06:47:26;;;;;;;3.95;3.65;;;16.20;57.20;;;;;;5095942;28;20023;-72
2023/03/01 06:49:51;;;;;;;4.22;3.92;;;16.20;58.10;;;;;;5095757;28;20495;-71
2023/03/01 06:52:17;;;;;;;4.30;3.78;;;16.30;57.90;;;;;;5076221;28;20028;-71
2023/03/01 06:54:43;;;;;;;4.50;4.20;;;16.20;57.50;;;;;;5090151;28;20516;-71
2023/03/01 06:57:08;;;;;;;4.38;3.97;;;16.20;58.30;;;;;;5096457;28;20032;-71
2023/03/01 06:59:34;;;;;;;4.18;3.88;;;16.20;59.40;;;;;;5094886;28;20064;-72
2023/03/01 07:01:59;;;;;;;3.95;3.50;;;16.20;62.60;;;;;;5090358;28;20024;-71
2023/03/01 07:04:28;;;;;;;4.13;3.90;;;16.20;59.80;;;;;;5095619;28;20040;-73
2023/03/01 07:06:54;;;;;;;3.75;3.45;;;16.20;61.70;;;;;;5095217;28;20543;-72
2023/03/01 07:09:24;;;;;;;3.38;3.03;;;16.20;59.70;;;;;;5097273;28;20458;-73
2023/03/01 07:11:49;;;;;;;4.07;3.42;;;16.10;64.50;;;;;;5096851;28;20039;-73
2023/03/01 07:14:15;;;;;;;4.22;3.70;;;16.20;63.40;;;;;;5094325;28;20095;-72
2023/03/01 07:16:41;;;;;;;6.53;3.72;;;16.30;64.60;;;;;;5097850;28;20111;-73
2023/03/01 07:19:07;;;;;;;8.68;4.20;;;16.20;62.90;;;;;;5087213;28;20114;-72
2023/03/01 07:21:32;;;;;;;6.82;4.68;;;16.20;60.80;;;;;;5090947;28;20023;-71
2023/03/01 07:23:58;;;;;;;4.85;4.38;;;16.20;62.80;;;;;;5092220;28;20059;-73
2023/03/01 07:26:23;;;;;;;4.45;4.03;;;16.20;65.50;;;;;;5094478;28;20114;-74
2023/03/01 07:28:49;;;;;;;4.07;3.50;;;16.10;62.00;;;;;;5095373;28;20032;-74
2023/03/01 07:31:15;;;;;;;3.58;3.28;;;16.10;63.50;;;;;;5091708;28;20063;-74
2023/03/01 07:33:40;;;;;;;4.00;3.60;;;16.10;63.90;;;;;;5089178;28;20016;-74
2023/03/01 07:36:06;;;;;;;5.22;3.33;;;16.10;62.00;;;;;;5095178;28;20028;-73
2023/03/01 07:38:32;;;;;;;4.75;4.03;;;16.10;66.10;;;;;;5090684;28;20020;-74
2023/03/01 07:40:59;;;;;;;4.47;3.92;;;16.00;63.20;;;;;;5096907;28;20544;-74
2023/03/01 07:43:24;;;;;;;3.83;3.58;;;16.00;65.10;;;;;;5091939;28;20095;-77
2023/03/01 07:45:50;;;;;;;3.55;3.35;;;16.10;63.10;;;;;;5078910;28;20098;-76
2023/03/01 07:48:16;;;;;;;4.10;3.90;;;16.10;63.40;;;;;;5102096;28;20623;-77
2023/03/01 07:50:42;;;;;;;3.70;3.50;;;16.00;65.20;;;;;;5092299;28;20110;-76
2023/03/01 07:53:08;;;;;;;3.60;3.30;;;16.00;64.30;;;;;;5102578;28;20454;-77
2023/03/01 07:55:33;;;;;;;3.70;3.50;;;16.00;64.30;;;;;;5077461;28;20038;-77
2023/03/01 07:57:59;;;;;;;3.00;2.80;;;16.00;67.50;;;;;;5095473;28;20023;-76
2023/03/01 08:00:25;;;;;;;3.60;3.30;;;16.00;63.90;;;;;;5095020;28;20024;-75
2023/03/01 08:02:50;;;;;;;3.10;2.80;;;16.00;67.50;;;;;;5090276;28;20027;-75
2023/03/01 08:05:16;;;;;;;3.22;3.03;;;16.00;67.70;;;;;;5076504;28;20043;-74
2023/03/01 08:07:41;;;;;;;3.80;3.50;;;16.00;67.90;;;;;;5096172;28;20067;-75
2023/03/01 08:10:08;;;;;;;3.22;3.00;;;16.00;67.10;;;;;;5097352;28;20044;-75
2023/03/01 08:12:33;;;;;;;3.78;3.58;;;15.90;69.50;;;;;;5096520;28;20044;-76
2023/03/01 08:14:59;;;;;;;3.42;3.20;;;15.90;66.00;;;;;;5103330;28;20058;-76
2023/03/01 08:17:25;;;;;;;3.92;3.63;;;15.90;65.70;;;;;;5103141;28;20050;-76
2023/03/01 08:19:50;;;;;;;3.60;3.30;;;16.00;66.80;;;;;;5103115;28;20039;-76
2023/03/01 08:22:16;;;;;;;3.10;2.90;;;15.90;66.70;;;;;;5096342;28;20043;-76
2023/03/01 08:24:41;;;;;;;3.03;2.83;;;15.90;66.70;;;;;;5098760;28;20082;-77
2023/03/01 08:27:07;;;;;;;3.83;2.53;;;15.90;68.00;;;;;;5101142;28;20088;-76
2023/03/01 08:29:33;;;;;;;2.97;2.78;;;15.90;69.10;;;;;;5101463;28;20048;-78
2023/03/01 08:31:58;;;;;;;2.80;2.60;;;15.90;67.80;;;;;;5078919;28;20501;-77
2023/03/01 08:34:24;;;;;;;3.00;2.80;;;15.80;68.50;;;;;;5083690;28;20040;-75
2023/03/01 08:36:51;;;;;;;4.93;3.13;;;15.90;69.90;;;;;;5097639;28;20035;-76
2023/03/01 08:39:18;;;;;;;2.60;2.40;;;15.80;70.70;;;;;;5099910;28;20046;-76
2023/03/01 08:45:06;;;;;;;3.10;2.90;;;15.90;70.50;;;;;;5093630;28;20038;-76
2023/03/01 08:47:33;;;;;;;3.15;2.65;;;15.90;70.90;;;;;;5101533;28;20411;-76
2023/03/01 08:49:59;;;;;;;3.38;3.13;;;15.90;70.60;;;;;;5100308;28;20024;-76
2023/03/01 08:52:25;;;;;;;2.90;2.70;;;15.90;70.70;;;;;;5103243;28;20036;-76
2023/03/01 08:54:51;;;;;;;2.53;2.42;;;15.90;70.80;;;;;;5096626;28;20032;-76
2023/03/01 08:57:16;;;;;;;3.58;2.65;;;15.90;69.00;;;;;;5096166;28;20089;-76
2023/03/01 08:59:42;;;;;;;3.40;2.63;;;15.90;68.20;;;;;;5096043;28;20036;-76
2023/03/01 09:02:13;;;;;;;3.45;2.95;;;15.90;69.10;;;;;;5099413;28;20804;-76
2023/03/01 09:04:38;;;;;;;2.95;2.75;;;16.00;68.60;;;;;;5080561;28;20051;-76
2023/03/01 09:07:04;;;;;;;3.38;3.17;;;16.00;68.20;;;;;;5099901;28;20047;-76
2023/03/01 09:09:30;;;;;;;3.25;2.95;;;16.00;68.20;;;;;;5098976;28;20054;-76
2023/03/01 09:11:55;;;;;;;2.90;2.60;;;16.10;68.20;;;;;;5099617;28;20052;-76
2023/03/01 09:14:21;;;;;;;2.67;2.47;;;16.10;68.30;;;;;;5097001;28;20431;-76
2023/03/01 09:16:46;;;;;;;2.88;2.67;;;16.10;66.60;;;;;;5093696;28;20046;-76
2023/03/01 09:19:12;;;;;;;2.85;2.58;;;16.10;67.40;;;;;;5096436;28;20088;-76
2023/03/01 09:21:38;;;;;;;2.50;2.40;;;16.20;66.50;;;;;;5088802;28;20040;-77
2023/03/01 09:24:03;;;;;;;2.50;2.30;;;16.30;68.70;;;;;;5093542;28;20051;-76
2023/03/01 09:26:29;;;;;;;3.13;2.92;;;16.30;69.20;;;;;;5095923;28;20032;-76
2023/03/01 09:28:55;;;;;;;2.58;2.47;;;16.30;67.30;;;;;;5097656;28;20146;-76
2023/03/01 09:31:21;;;;;;;2.30;2.20;;;16.30;68.20;;;;;;5077406;28;20119;-76
2023/03/01 09:33:48;;;;;;;4.45;2.60;;;16.30;66.70;;;;;;5094983;28;20044;-76
2023/03/01 09:36:18;;;;;;;2.85;2.65;;;16.40;68.00;;;;;;5094794;28;20057;-76
2023/03/01 09:38:44;;;;;;;2.50;2.30;;;16.40;65.70;;;;;;5093496;28;20131;-76
2023/03/01 09:41:10;;;;;;;2.40;2.17;;;16.40;66.30;;;;;;5099617;28;20134;-76
2023/03/01 09:46:58;;;;;;;2.85;2.63;;;16.40;64.70;;;;;;5099115;28;20026;-76
2023/03/01 09:49:30;;;;;;;2.58;2.38;;;16.50;65.70;;;;;;5074584;28;20036;-76
2023/03/01 09:51:59;;;;;;;2.00;1.90;;;16.50;66.70;;;;;;5069321;28;20032;-76
2023/03/01 09:54:24;;;;;;;4.38;2.60;;;16.50;66.60;;;;;;5066532;28;20036;-76
2023/03/01 09:57:09;;;;;;;2.33;2.13;;;16.50;64.10;;;;;;5096604;28;20040;-76
2023/03/01 10:00:01;;;;;;;2.15;2.05;;;16.50;62.90;;;;;;5093970;28;27516;-76
2023/03/01 10:02:27;;;;;;;2.08;1.98;;;16.50;62.50;;;;;;5082326;28;20043;-76
2023/03/01 10:05:17;;;;;;;7.05;2.00;;;16.50;62.00;;;;;;5075285;28;20107;-76
2023/03/01 10:07:52;;;;;;;2.70;2.40;;;16.50;61.70;;;;;;5091403;28;20497;-76
2023/03/01 10:10:32;;;;;;;2.13;1.95;;;16.50;61.50;;;;;;5085842;28;20457;-76
2023/03/01 10:12:58;;;;;;;2.88;2.38;;;16.60;61.90;;;;;;5057148;28;20083;-76
2023/03/01 10:15:41;;;;;;;2.15;1.95;;;16.60;61.60;;;;;;5076715;28;20506;-76
2023/03/01 10:18:12;;;;;;;1.85;1.75;;;16.60;61.40;;;;;;5092936;28;20047;-76
2023/03/01 10:20:41;;;;;;;1.80;1.70;;;16.60;61.50;;;;;;5062602;28;20048;-76
2023/03/01 10:23:08;;;;;;;2.00;1.65;;;16.60;61.50;;;;;;5090994;28;20047;-76
2023/03/01 10:25:36;;;;;;;1.90;1.80;;;16.60;61.40;;;;;;5074004;28;20059;-76
2023/03/01 10:28:06;;;;;;;2.15;2.05;;;16.60;61.40;;;;;;5091491;28;20567;-76
2023/03/01 10:30:39;;;;;;;2.28;1.95;;;16.70;61.50;;;;;;5075567;28;20040;-76
2023/03/01 10:33:22;;;;;;;1.80;1.70;;;16.70;61.40;;;;;;5061044;28;20055;-76
2023/03/01 10:35:48;;;;;;;1.98;1.88;;;16.70;61.60;;;;;;5064313;28;20826;-76
2023/03/01 10:38:14;;;;;;;2.15;2.05;;;16.70;61.40;;;;;;5091440;28;20038;-76
2023/03/01 10:44:02;;;;;;;2.17;1.92;;;16.70;61.30;;;;;;5094737;28;20103;-75
2023/03/01 10:46:35;;;;;;;2.17;2.08;;;16.70;61.30;;;;;;5094343;28;20090;-76
2023/03/01 10:49:22;;;;;;;2.00;1.90;;;16.70;61.50;;;;;;5090891;28;20016;-76
2023/03/01 10:51:49;;;;;;;1.65;1.55;;;16.70;61.50;;;;;;5089599;28;20085;-76
2023/03/01 10:54:27;;;;;;;1.75;1.65;;;16.70;61.30;;;;;;5078099;28;20016;-76
2023/03/01 10:57:00;;;;;;;1.80;1.70;;;16.80;61.10;;;;;;5078314;28;20111;-76
2023/03/01 10:59:31;;;;;;;1.90;1.80;;;16.80;61.00;;;;;;5062621;28;20505;-76
2023/03/01 11:02:08;;;;;;;2.00;1.90;;;16.80;61.30;;;;;;5100861;28;20030;-76
2023/03/01 11:04:34;;;;;;;2.05;1.95;;;16.80;61.10;;;;;;5093829;28;20489;-76
2023/03/01 11:07:00;;;;;;;1.90;1.80;;;16.80;61.20;;;;;;5089449;28;20112;-76
2023/03/01 11:09:31;;;;;;;1.95;1.80;;;16.80;61.00;;;;;;5077673;28;20023;-76
2023/03/01 11:11:59;;;;;;;1.80;1.70;;;16.80;60.90;;;;;;5077146;28;20115;-76
2023/03/01 11:14:26;;;;;;;1.80;1.70;;;16.80;60.90;;;;;;5115818;27;20036;-76
2023/03/01 11:17:11;;;;;;;2.20;2.10;;;16.80;60.90;;;;;;5098666;28;20056;-76
2023/03/01 11:19:37;;;;;;;1.63;1.52;;;16.90;60.80;;;;;;5111083;27;20032;-76
2023/03/01 11:22:14;;;;;;;1.63;1.52;;;16.90;60.80;;;;;;5091512;28;20028;-75
2023/03/01 11:24:45;;;;;;;2.65;1.75;;;16.90;60.70;;;;;;5072823;28;20039;-76
2023/03/01 11:27:23;;;;;;;1.70;1.60;;;16.80;60.60;;;;;;5060532;28;20042;-76
2023/03/01 11:30:13;;;;;;;2.00;1.90;;;16.90;60.70;;;;;;5069379;28;20031;-76
2023/03/01 11:32:45;;;;;;;2.22;2.13;;;16.90;60.60;;;;;;5073843;28;20043;-77
2023/03/01 11:35:19;;;;;;;2.17;1.70;;;16.90;60.70;;;;;;5061796;28;20016;-78
2023/03/01 11:41:14;;;;;;;2.15;2.05;;;17.00;62.10;;;;;;5088359;28;20478;-77
2023/03/01 11:43:49;;;;;;;2.08;1.90;;;17.00;63.60;;;;;;4716644;28;10000302;-76
2023/03/01 11:46:39;;;;;;;4.03;3.00;;;17.00;63.60;;;;;;4741014;28;10000309;-77
2023/03/01 11:49:14;;;;;;;2.65;2.45;;;17.10;63.70;;;;;;5089456;28;20056;-78
2023/03/01 11:52:10;;;;;;;2.72;2.53;;;17.10;63.30;;;;;;5090841;28;20048;-77
2023/03/01 11:54:52;;;;;;;3.20;2.38;;;17.20;62.80;;;;;;5066738;28;20035;-78
2023/03/01 11:57:20;;;;;;;2.40;2.22;;;17.20;63.00;;;;;;5063563;28;20048;-78
2023/03/01 12:00:18;;;;;;;2.85;2.65;;;17.10;64.10;;;;;;5088798;28;20048;-78
2023/03/01 12:03:15;;;;;;;3.05;2.42;;;17.00;63.00;;;;;;5067706;28;20108;-76
2023/03/01 12:06:03;;;;;;;2.92;2.10;;;17.00;62.60;;;;;;5068810;28;20040;-76
2023/03/01 12:08:50;;;;;;;2.42;2.08;;;17.00;62.70;;;;;;5088418;28;20060;-76
2023/03/01 12:11:25;;;;;;;2.88;2.15;;;17.00;62.60;;;;;;5090868;28;20127;-76
2023/03/01 12:13:59;;;;;;;3.05;2.03;;;17.00;62.60;;;;;;5084779;28;20504;-76
2023/03/01 12:16:53;;;;;;;2.28;2.08;;;17.00;62.50;;;;;;5072789;28;20117;-76
2023/03/01 12:19:35;;;;;;;2.35;1.88;;;17.00;62.50;;;;;;5069695;28;20044;-76
2023/03/01 12:22:12;;;;;;;2.17;2.00;;;17.00;62.40;;;;;;5085711;28;20028;-75
2023/03/01 12:24:51;;;;;;;2.15;1.75;;;17.00;62.30;;;;;;5071248;28;20159;-76
2023/03/01 12:27:25;;;;;;;1.95;1.52;;;17.00;62.20;;;;;;5078178;28;20108;-76
2023/03/01 12:30:00;;;;;;;;;;;17.00;62.10;;;;;;5070833;28;20071;-76
2023/03/01 12:32:45;;;;;;;3.60;1.90;;;17.00;62.70;;;;;;5075763;28;19920;-76
2023/03/01 12:35:29;;;;;;;;;;;17.00;62.30;;;;;;5094810;28;20039;-76
2023/03/01 12:38:01;;;;;;;1.95;1.85;;;17.00;61.90;;;;;;5099203;28;19946;-76
2023/03/01 12:40:45;;;;;;;1.55;1.45;;;17.00;61.80;;;;;;5092147;28;20398;-76
2023/03/01 12:43:33;;;;;;;1.63;1.52;;;17.00;61.80;;;;;;5097817;28;20031;-76
2023/03/01 12:46:18;;;;;;;1.75;1.65;;;17.00;62.00;;;;;;5077323;28;20807;-76
2023/03/01 12:48:43;;;;;;;;;;;17.00;61.70;;;;;;5098226;28;20029;-76
2023/03/01 12:51:11;;;;;;;1.17;1.15;;;17.00;61.80;;;;;;5097753;28;19922;-76
2023/03/01 12:53:55;;;;;;;1.60;1.50;;;17.00;61.70;;;;;;5079357;28;20134;-76
2023/03/01 12:56:22;;;;;;;1.63;1.52;;;17.00;61.70;;;;;;5066830;28;20438;-76
2023/03/01 12:58:51;;;;;;;1.13;1.02;;;17.00;61.60;;;;;;5076896;28;20024;-76
2023/03/01 13:01:45;;;;;;;1.80;1.65;;;17.00;61.30;;;;;;5075496;28;20077;-75
2023/03/01 13:04:32;;;;;;;1.63;1.52;;;17.00;61.20;;;;;;5100069;28;20020;-76
2023/03/01 13:06:57;;;;;;;2.97;1.40;;;17.00;61.30;;;;;;5074035;28;20023;-76
2023/03/01 13:09:46;;;;;;;1.58;1.48;;;17.00;61.20;;;;;;5094105;28;20025;-76
2023/03/01 13:12:51;;;;;;;1.15;1.10;;;17.00;61.30;;;;;;5083699;28;20039;-76
2023/03/01 13:15:23;;;;;;;1.25;1.25;;;17.00;61.00;;;;;;5053551;28;20052;-76
2023/03/01 13:18:00;;;;;;;1.92;1.60;;;17.00;61.20;;;;;;5097626;28;20026;-76
2023/03/01 13:20:43;;;;;;;1.42;1.30;;;17.00;60.90;;;;;;5096403;28;20404;-76
2023/03/01 13:23:21;;;;;;;1.17;1.10;;;17.00;61.00;;;;;;5101477;28;20015;-76